createdAt,value
2023-04-25T00:02:00.757Z,4.22
2023-04-25T00:04:28.791Z,4.03
2023-04-25T00:06:55.794Z,2.22
2023-04-25T00:09:23.265Z,2.83
2023-04-25T00:11:50.127Z,2.88
2023-04-25T00:14:17.674Z,2.25
2023-04-25T00:16:45.124Z,2.47
2023-04-25T00:19:14.442Z,1.92
2023-04-25T00:21:47.052Z,2.63
2023-04-25T00:24:14.160Z,2.60
2023-04-25T00:26:40.734Z,2.58
2023-04-25T00:29:07.269Z,3.03
2023-04-25T00:31:33.903Z,2.45
2023-04-25T00:34:00.622Z,2.67
2023-04-25T00:36:27.269Z,2.20
2023-04-25T00:38:55.495Z,2.30
2023-04-25T00:41:22.094Z,2.00
2023-04-25T00:43:49.546Z,1.85
2023-04-25T00:46:16.448Z,2.08
2023-04-25T00:48:43.099Z,2.05
2023-04-25T00:51:12.734Z,3.20
2023-04-25T00:53:39.343Z,2.63
2023-04-25T00:56:06.907Z,2.15
2023-04-25T00:58:33.566Z,2.45
2023-04-25T01:01:02.390Z,2.40
2023-04-25T01:03:29.840Z,3.35
2023-04-25T01:05:57.441Z,2.25
2023-04-25T01:08:26.461Z,3.00
2023-04-25T01:10:53.079Z,2.75
2023-04-25T01:13:19.899Z,2.05
2023-04-25T01:15:46.724Z,2.72
2023-04-25T01:18:13.727Z,2.35
2023-04-25T01:20:42.666Z,2.30
2023-04-25T01:23:09.758Z,2.17
2023-04-25T01:25:36.797Z,2.33
2023-04-25T01:28:03.398Z,2.80
2023-04-25T01:30:30.351Z,2.17
2023-04-25T01:32:57.604Z,3.00
2023-04-25T01:35:24.914Z,2.53
2023-04-25T01:37:52.342Z,2.72
2023-04-25T01:40:21.647Z,2.40
2023-04-25T01:42:48.464Z,3.40
2023-04-25T01:45:15.084Z,3.05
2023-04-25T01:47:43.793Z,2.17
2023-04-25T01:50:11.961Z,2.08
2023-04-25T01:52:38.936Z,1.85
2023-04-25T01:55:06.182Z,2.30
2023-04-25T01:57:32.785Z,1.48
2023-04-25T02:00:01.057Z,2.20
2023-04-25T02:02:27.901Z,1.70
2023-04-25T02:04:55.360Z,2.17
2023-04-25T02:07:22.230Z,2.67
2023-04-25T02:09:49.326Z,1.90
2023-04-25T02:12:16.159Z,1.75
2023-04-25T02:14:42.713Z,1.70
2023-04-25T02:17:09.622Z,2.63
2023-04-25T02:19:36.567Z,1.77
2023-04-25T02:22:03.260Z,2.30
2023-04-25T02:24:30.024Z,3.10
2023-04-25T02:26:57.020Z,1.90
2023-04-25T02:29:24.053Z,2.05
2023-04-25T02:31:51.000Z,2.17
2023-04-25T02:34:17.768Z,1.83
2023-04-25T02:36:44.347Z,2.55
2023-04-25T02:39:11.841Z,2.22
2023-04-25T02:41:38.564Z,2.00
2023-04-25T02:44:05.369Z,2.13
2023-04-25T02:46:38.848Z,2.05
2023-04-25T02:49:06.163Z,2.38
2023-04-25T02:51:33.715Z,2.53
2023-04-25T02:54:00.391Z,3.20
2023-04-25T02:56:27.659Z,2.38
2023-04-25T02:58:54.695Z,2.33
2023-04-25T03:01:21.900Z,1.63
2023-04-25T03:03:48.778Z,2.30
2023-04-25T03:06:16.822Z,2.38
2023-04-25T03:08:44.106Z,1.80
2023-04-25T03:11:11.510Z,1.75
2023-04-25T03:13:38.347Z,1.98
2023-04-25T03:16:05.354Z,2.50
2023-04-25T03:18:32.250Z,2.22
2023-04-25T03:20:59.061Z,1.42
2023-04-25T03:23:25.950Z,1.50
2023-04-25T03:25:52.637Z,2.35
2023-04-25T03:28:19.187Z,2.15
2023-04-25T03:30:46.002Z,1.70
2023-04-25T03:33:12.891Z,2.08
2023-04-25T03:35:39.453Z,1.85
2023-04-25T03:38:06.041Z,1.85
2023-04-25T03:40:32.843Z,1.40
2023-04-25T03:42:59.394Z,1.45
2023-04-25T03:45:26.483Z,2.00
2023-04-25T03:47:53.228Z,1.80
2023-04-25T03:50:20.085Z,1.88
2023-04-25T03:52:46.844Z,1.98
2023-04-25T03:55:13.420Z,1.23
2023-04-25T03:57:40.111Z,1.98
2023-04-25T04:00:07.597Z,1.50
2023-04-25T04:02:36.462Z,2.08
2023-04-25T04:05:04.258Z,1.65
2023-04-25T04:07:33.093Z,1.33
2023-04-25T04:10:00.248Z,1.73
2023-04-25T04:12:26.803Z,2.42
2023-04-25T04:14:54.532Z,2.13
2023-04-25T04:17:21.435Z,1.77
2023-04-25T04:19:48.021Z,1.67
2023-04-25T04:22:15.076Z,1.63
2023-04-25T04:24:44.651Z,1.65
2023-04-25T04:27:11.518Z,1.23
2023-04-25T04:29:38.102Z,1.50
2023-04-25T04:32:07.700Z,1.65
2023-04-25T04:34:34.762Z,1.30
2023-04-25T04:37:01.685Z,1.20
2023-04-25T04:39:28.274Z,1.80
2023-04-25T04:41:54.920Z,2.17
2023-04-25T04:44:21.946Z,1.45
2023-04-25T04:46:49.594Z,1.45
2023-04-25T04:49:17.299Z,1.55
2023-04-25T04:51:45.528Z,2.08
2023-04-25T04:54:14.121Z,1.83
2023-04-25T04:56:41.232Z,1.30
2023-04-25T04:59:08.225Z,1.88
2023-04-25T05:01:39.349Z,1.73
2023-04-25T05:04:06.993Z,1.70
2023-04-25T05:06:33.944Z,2.00
2023-04-25T05:09:01.177Z,1.55
2023-04-25T05:11:27.887Z,1.88
2023-04-25T05:13:54.514Z,1.50
2023-04-25T05:16:21.538Z,1.77
2023-04-25T05:18:48.748Z,1.58
2023-04-25T05:21:15.400Z,1.27
2023-04-25T05:23:42.239Z,1.20
2023-04-25T05:26:14.481Z,1.98
2023-04-25T05:28:44.355Z,1.15
2023-04-25T05:31:11.523Z,1.52
2023-04-25T05:33:40.177Z,1.48
2023-04-25T05:36:07.456Z,1.10
2023-04-25T05:38:34.914Z,2.00
2023-04-25T05:41:03.843Z,1.60
2023-04-25T05:43:30.723Z,1.55
2023-04-25T05:45:57.383Z,1.67
2023-04-25T05:48:23.986Z,1.23
2023-04-25T05:50:52.697Z,1.50
2023-04-25T05:53:20.995Z,1.27
2023-04-25T05:55:47.838Z,1.00
2023-04-25T05:58:14.458Z,1.52
2023-04-25T06:00:44.281Z,1.30
2023-04-25T06:03:11.178Z,1.42
2023-04-25T06:05:37.912Z,2.10
2023-04-25T06:08:04.566Z,1.15
2023-04-25T06:10:32.918Z,1.70
2023-04-25T06:13:01.084Z,1.38
2023-04-25T06:15:29.233Z,1.33
2023-04-25T06:17:58.107Z,1.55
2023-04-25T06:20:25.538Z,1.50
2023-04-25T06:22:52.810Z,1.52
2023-04-25T06:25:19.547Z,1.55
2023-04-25T06:27:48.103Z,1.85
2023-04-25T06:30:16.583Z,1.95
2023-04-25T06:32:43.165Z,1.45
2023-04-25T06:35:10.048Z,1.48
2023-04-25T06:37:36.624Z,1.73
2023-04-25T06:40:05.270Z,1.73
2023-04-25T06:42:33.917Z,1.23
2023-04-25T06:45:00.912Z,1.67
2023-04-25T06:47:27.547Z,1.33
2023-04-25T06:49:54.121Z,1.90
2023-04-25T06:52:20.664Z,1.92
2023-04-25T06:54:48.931Z,2.08
2023-04-25T06:57:15.736Z,0.90
2023-04-25T06:59:44.028Z,1.90
2023-04-25T07:02:10.735Z,1.92
2023-04-25T07:04:37.763Z,1.52
2023-04-25T07:07:04.782Z,1.38
2023-04-25T07:09:34.595Z,1.23
2023-04-25T07:12:04.492Z,2.42
2023-04-25T07:14:32.474Z,1.15
2023-04-25T07:17:00.700Z,1.15
2023-04-25T07:19:27.619Z,1.80
2023-04-25T07:21:55.516Z,1.00
2023-04-25T07:24:22.119Z,0.88
2023-04-25T07:26:48.748Z,1.35
2023-04-25T07:29:15.332Z,1.25
2023-04-25T07:31:42.614Z,1.00
2023-04-25T07:34:09.288Z,1.33
2023-04-25T07:36:35.916Z,0.63
2023-04-25T07:39:06.401Z,1.00
2023-04-25T07:41:33.204Z,1.50
2023-04-25T07:43:59.885Z,1.00
2023-04-25T07:46:30.487Z,1.23
2023-04-25T07:48:57.173Z,1.27
2023-04-25T07:51:25.607Z,2.05
2023-04-25T07:53:52.398Z,1.30
2023-04-25T07:56:19.008Z,1.30
2023-04-25T07:58:47.432Z,1.40
2023-04-25T08:01:14.039Z,1.42
2023-04-25T08:03:42.776Z,1.50
2023-04-25T08:06:10.297Z,0.90
2023-04-25T08:08:38.604Z,0.82
2023-04-25T08:11:05.332Z,0.57
2023-04-25T08:13:31.882Z,0.60
2023-04-25T08:15:58.486Z,0.60
2023-04-25T08:18:25.113Z,0.95
2023-04-25T08:20:51.861Z,0.77
2023-04-25T08:23:18.430Z,1.08
2023-04-25T08:25:46.759Z,0.93
2023-04-25T08:28:13.867Z,1.15
2023-04-25T08:30:41.256Z,1.58
2023-04-25T08:33:07.837Z,1.75
2023-04-25T08:35:36.700Z,1.05
2023-04-25T08:38:03.407Z,1.85
2023-04-25T08:40:31.128Z,1.23
2023-04-25T08:43:04.259Z,2.03
2023-04-25T08:45:33.360Z,1.48
2023-04-25T08:48:01.472Z,1.10
2023-04-25T08:50:28.657Z,1.35
2023-04-25T08:52:57.661Z,1.38
2023-04-25T08:55:25.719Z,1.40
2023-04-25T08:57:53.485Z,1.20
2023-04-25T09:00:20.161Z,0.90
2023-04-25T09:02:48.548Z,0.93
2023-04-25T09:05:15.561Z,0.70
2023-04-25T09:07:45.557Z,0.80
2023-04-25T09:10:13.031Z,0.95
2023-04-25T09:12:39.608Z,1.17
2023-04-25T09:15:11.421Z,1.10
2023-04-25T09:17:41.333Z,1.02
2023-04-25T09:20:13.898Z,1.00
2023-04-25T09:22:40.649Z,1.23
2023-04-25T09:25:16.956Z,0.88
2023-04-25T09:27:54.606Z,0.68
2023-04-25T09:30:31.788Z,0.60
2023-04-25T09:33:04.861Z,1.13
2023-04-25T09:35:40.383Z,1.15
2023-04-25T09:38:15.237Z,0.60
2023-04-25T09:40:45.650Z,1.48
2023-04-25T09:43:28.426Z,0.90
2023-04-25T09:45:59.088Z,0.90
2023-04-25T09:48:27.663Z,1.13
2023-04-25T09:51:09.377Z,0.73
2023-04-25T09:53:41.006Z,0.50
2023-04-25T09:56:10.317Z,1.20
2023-04-25T09:58:38.573Z,0.75
2023-04-25T10:01:09.192Z,0.80
2023-04-25T10:03:38.323Z,0.73
2023-04-25T10:06:09.371Z,0.65
2023-04-25T10:08:37.635Z,0.90
2023-04-25T10:11:10.910Z,0.55
2023-04-25T10:13:37.651Z,0.85
2023-04-25T10:16:05.826Z,0.68
2023-04-25T10:18:33.453Z,0.77
2023-04-25T10:21:06.860Z,1.05
2023-04-25T10:23:35.671Z,1.20
2023-04-25T10:26:02.849Z,0.93
2023-04-25T10:28:30.402Z,0.90
2023-04-25T10:31:05.140Z,0.70
2023-04-25T10:33:45.125Z,1.70
2023-04-25T10:36:23.524Z,0.90
2023-04-25T10:38:51.708Z,0.80
2023-04-25T10:41:23.725Z,0.85
2023-04-25T10:43:59.626Z,0.80
2023-04-25T10:46:28.205Z,0.32
2023-04-25T10:48:57.179Z,0.88
2023-04-25T10:51:32.579Z,0.90
2023-04-25T10:54:05.991Z,1.02
2023-04-25T10:56:43.626Z,0.80
2023-04-25T10:59:21.053Z,1.00
2023-04-25T11:01:54.088Z,0.60
2023-04-25T11:04:33.812Z,0.88
2023-04-25T11:07:38.172Z,0.32
2023-04-25T11:10:05.453Z,0.60
2023-04-25T11:12:32.962Z,0.90
2023-04-25T11:15:01.996Z,0.60
2023-04-25T11:17:31.117Z,0.32
2023-04-25T11:19:58.389Z,0.50
2023-04-25T11:22:25.321Z,0.60
2023-04-25T11:24:52.349Z,1.02
2023-04-25T11:27:19.064Z,0.65
2023-04-25T11:29:45.753Z,0.70
2023-04-25T11:32:12.891Z,0.80
2023-04-25T11:34:39.543Z,0.77
2023-04-25T11:37:08.607Z,1.38
2023-04-25T11:39:38.231Z,0.95
2023-04-25T11:42:07.708Z,0.38
2023-04-25T11:44:40.859Z,0.90
2023-04-25T11:47:07.508Z,0.52
2023-04-25T11:49:34.379Z,1.02
2023-04-25T11:52:01.124Z,1.15
2023-04-25T11:54:27.732Z,0.47
2023-04-25T11:56:54.319Z,0.40
2023-04-25T11:59:28.022Z,0.70
2023-04-25T12:01:55.119Z,0.85
2023-04-25T12:04:24.675Z,0.80
2023-04-25T12:06:54.349Z,0.43
2023-04-25T12:09:28.505Z,0.75
2023-04-25T12:11:59.903Z,0.80
2023-04-25T12:14:33.642Z,0.50
2023-04-25T12:17:02.260Z,0.57
2023-04-25T12:19:37.041Z,0.60
2023-04-25T12:22:07.638Z,1.13
2023-04-25T12:24:37.824Z,0.40
2023-04-25T12:27:09.242Z,0.45
2023-04-25T12:29:49.175Z,0.68
2023-04-25T12:32:17.107Z,0.60
2023-04-25T12:34:43.663Z,0.52
2023-04-25T12:37:10.758Z,0.40
2023-04-25T12:39:39.314Z,0.82
2023-04-25T12:42:08.652Z,0.90
2023-04-25T12:44:38.338Z,0.88
2023-04-25T12:47:06.259Z,0.60
2023-04-25T12:49:33.083Z,0.90
2023-04-25T12:52:01.354Z,0.93
2023-04-25T12:54:28.063Z,1.05
2023-04-25T12:56:55.459Z,0.82
2023-04-25T12:59:24.028Z,0.90
2023-04-25T13:01:52.608Z,0.60
2023-04-25T13:04:21.187Z,0.60
2023-04-25T13:06:48.016Z,1.10
2023-04-25T13:09:16.258Z,1.17
2023-04-25T13:11:43.988Z,0.60
2023-04-25T13:14:11.190Z,2.05
2023-04-25T13:16:37.880Z,0.88
2023-04-25T13:19:04.529Z,1.45
2023-04-25T13:21:33.495Z,1.02
2023-04-25T13:24:00.351Z,1.00
2023-04-25T13:26:27.030Z,0.68
2023-04-25T13:28:53.661Z,0.93
2023-04-25T13:31:20.331Z,1.58
2023-04-25T13:33:47.216Z,0.98
2023-04-25T13:36:15.411Z,0.82
2023-04-25T13:38:46.942Z,0.90
2023-04-25T13:41:21.334Z,0.98
2023-04-25T13:43:48.728Z,0.70
2023-04-25T13:46:35.562Z,0.95
2023-04-25T13:49:12.394Z,1.17
2023-04-25T13:51:41.642Z,1.30
2023-04-25T13:54:08.552Z,1.10
2023-04-25T13:56:35.520Z,1.10
2023-04-25T13:59:04.008Z,1.33
2023-04-25T14:01:32.110Z,1.15
2023-04-25T14:03:58.894Z,0.88
2023-04-25T14:06:26.234Z,1.00
2023-04-25T14:08:52.845Z,0.73
2023-04-25T14:11:23.852Z,0.57
2023-04-25T14:13:50.959Z,0.80
2023-04-25T14:16:18.110Z,1.05
2023-04-25T14:18:45.115Z,0.82
2023-04-25T14:21:13.775Z,0.88
2023-04-25T14:23:41.203Z,0.45
2023-04-25T14:26:07.822Z,0.95
2023-04-25T14:28:34.394Z,1.15
2023-04-25T14:31:01.732Z,0.50
2023-04-25T14:33:28.472Z,0.57
2023-04-25T14:35:55.480Z,1.65
2023-04-25T14:38:24.109Z,0.95
2023-04-25T14:40:50.964Z,0.65
2023-04-25T14:43:17.652Z,1.10
2023-04-25T14:45:44.371Z,1.15
2023-04-25T14:48:12.213Z,0.98
2023-04-25T14:50:38.893Z,0.65
2023-04-25T14:53:05.918Z,0.95
2023-04-25T14:55:32.681Z,0.90
2023-04-25T14:57:59.368Z,0.75
2023-04-25T15:00:29.625Z,0.93
2023-04-25T15:02:57.119Z,0.75
2023-04-25T15:05:25.744Z,0.57
2023-04-25T15:07:52.274Z,0.57
2023-04-25T15:10:19.523Z,0.85
2023-04-25T15:12:49.210Z,0.60
2023-04-25T15:15:25.345Z,0.68
2023-04-25T15:17:56.503Z,0.63
2023-04-25T15:20:25.347Z,0.90
2023-04-25T15:22:52.154Z,0.80
2023-04-25T15:25:21.210Z,1.33
2023-04-25T15:27:49.502Z,1.25
2023-04-25T15:30:17.865Z,0.60
2023-04-25T15:32:46.222Z,1.23
2023-04-25T15:35:13.391Z,0.95
2023-04-25T15:37:41.302Z,1.35
2023-04-25T15:40:16.879Z,0.70
2023-04-25T15:42:44.597Z,1.27
2023-04-25T15:45:12.130Z,0.50
2023-04-25T15:47:39.521Z,0.88
2023-04-25T15:50:08.512Z,0.70
2023-04-25T15:52:37.288Z,1.13
2023-04-25T15:55:06.335Z,1.40
2023-04-25T16:00:25.826Z,0.73
2023-04-25T16:02:54.463Z,0.80
2023-04-25T16:05:21.491Z,0.85
2023-04-25T16:07:48.403Z,0.57
2023-04-25T16:10:21.106Z,0.77
2023-04-25T16:12:49.593Z,0.90
2023-04-25T16:15:17.224Z,0.40
2023-04-25T16:17:43.870Z,0.98
2023-04-25T16:20:13.183Z,1.00
2023-04-25T16:22:41.663Z,0.80
2023-04-25T16:25:09.223Z,1.00
2023-04-25T16:27:37.888Z,1.30
2023-04-25T16:30:06.285Z,0.90
2023-04-25T16:32:32.887Z,0.82
2023-04-25T16:34:59.696Z,1.42
2023-04-25T16:37:26.802Z,0.80
2023-04-25T16:39:53.977Z,0.50
2023-04-25T16:42:20.684Z,0.43
2023-04-25T16:44:47.464Z,0.40
2023-04-25T16:47:17.969Z,0.50
2023-04-25T16:49:46.324Z,0.43
2023-04-25T16:52:13.213Z,0.40
2023-04-25T16:54:41.253Z,0.68
2023-04-25T16:57:10.891Z,0.52
2023-04-25T16:59:38.851Z,0.85
2023-04-25T17:02:05.981Z,0.60
2023-04-25T17:04:32.869Z,1.13
2023-04-25T17:07:01.179Z,0.70
2023-04-25T17:09:29.248Z,1.33
2023-04-25T17:11:56.244Z,0.68
2023-04-25T17:14:22.884Z,0.70
2023-04-25T17:16:49.928Z,1.42
2023-04-25T17:19:16.570Z,0.68
2023-04-25T17:21:44.436Z,1.13
2023-04-25T17:24:12.008Z,0.95
2023-04-25T17:26:39.135Z,0.85
2023-04-25T17:29:05.725Z,0.60
2023-04-25T17:31:32.593Z,0.68
2023-04-25T17:34:03.071Z,0.65
2023-04-25T17:36:30.889Z,1.30
2023-04-25T17:38:57.574Z,0.77
2023-04-25T17:41:24.350Z,0.60
2023-04-25T17:43:51.300Z,1.00
2023-04-25T17:46:17.998Z,1.05
2023-04-25T17:48:45.104Z,0.40
2023-04-25T17:51:15.891Z,0.57
2023-04-25T17:53:42.688Z,0.60
2023-04-25T17:56:23.449Z,1.05
2023-04-25T17:58:53.308Z,1.20
2023-04-25T18:01:22.382Z,0.50
2023-04-25T18:03:50.003Z,0.25
2023-04-25T18:06:17.760Z,0.70
2023-04-25T18:08:44.764Z,0.55
2023-04-25T18:11:12.059Z,0.70
2023-04-25T18:13:39.485Z,0.80
2023-04-25T18:16:06.892Z,0.63
2023-04-25T18:18:35.800Z,0.85
2023-04-25T18:21:05.907Z,0.90
2023-04-25T18:23:35.802Z,1.15
2023-04-25T18:26:04.375Z,0.85
2023-04-25T18:28:31.076Z,1.38
2023-04-25T18:30:57.973Z,0.82
2023-04-25T18:33:25.148Z,0.73
2023-04-25T18:38:34.816Z,1.08
2023-04-25T18:41:18.295Z,0.95
2023-04-25T18:43:49.403Z,0.77
2023-04-25T18:46:17.578Z,1.10
2023-04-25T18:48:44.358Z,1.60
2023-04-25T18:51:11.663Z,0.70
2023-04-25T18:53:38.401Z,1.05
2023-04-25T18:56:05.193Z,0.60
2023-04-25T18:58:34.237Z,1.58
2023-04-25T19:01:01.624Z,1.90
2023-04-25T19:03:32.110Z,1.17
2023-04-25T19:06:00.520Z,1.13
2023-04-25T19:08:27.752Z,1.98
2023-04-25T19:10:54.609Z,1.35
2023-04-25T19:13:21.948Z,1.00
2023-04-25T19:15:49.126Z,1.70
2023-04-25T19:18:15.986Z,1.70
2023-04-25T19:20:43.634Z,1.55
2023-04-25T19:23:10.778Z,0.88
2023-04-25T19:25:37.547Z,0.93
2023-04-25T19:28:04.906Z,1.13
2023-04-25T19:30:31.694Z,0.70
2023-04-25T19:32:59.791Z,0.90
2023-04-25T19:35:30.697Z,0.80
2023-04-25T19:37:57.278Z,0.90
2023-04-25T19:40:23.912Z,1.00
2023-04-25T19:42:50.968Z,0.90
2023-04-25T19:45:17.927Z,0.80
2023-04-25T19:47:45.612Z,0.90
2023-04-25T19:50:13.878Z,0.88
2023-04-25T19:52:41.336Z,0.82
2023-04-25T19:55:09.699Z,0.70
2023-04-25T19:57:39.658Z,0.70
2023-04-25T20:00:12.771Z,0.70
2023-04-25T20:02:40.578Z,0.75
2023-04-25T20:05:08.650Z,1.00
2023-04-25T20:07:35.587Z,0.77
2023-04-25T20:10:06.431Z,1.33
2023-04-25T20:12:34.263Z,0.93
2023-04-25T20:15:01.505Z,1.10
2023-04-25T20:17:28.294Z,0.68
2023-04-25T20:19:54.916Z,0.90
2023-04-25T20:22:21.536Z,0.77
2023-04-25T20:24:48.434Z,1.25
2023-04-25T20:27:16.805Z,0.80
2023-04-25T20:29:43.337Z,0.88
2023-04-25T20:32:10.145Z,0.95
2023-04-25T20:34:37.026Z,0.70
2023-04-25T20:37:03.673Z,0.75
2023-04-25T20:39:30.530Z,1.35
2023-04-25T20:41:57.596Z,0.98
2023-04-25T20:44:25.147Z,1.27
2023-04-25T20:46:54.158Z,0.82
2023-04-25T20:49:20.940Z,0.95
2023-04-25T20:51:47.615Z,0.70
2023-04-25T20:54:14.281Z,1.42
2023-04-25T20:56:41.333Z,1.30
2023-04-25T20:59:09.055Z,1.00
2023-04-25T21:01:36.451Z,1.00
2023-04-25T21:04:03.657Z,0.82
2023-04-25T21:06:31.329Z,0.60
2023-04-25T21:08:57.906Z,0.88
2023-04-25T21:11:24.571Z,0.95
2023-04-25T21:13:51.670Z,0.70
2023-04-25T21:16:18.588Z,0.95
2023-04-25T21:18:45.291Z,0.65
2023-04-25T21:21:11.914Z,0.60
2023-04-25T21:23:38.584Z,1.08
2023-04-25T21:26:06.003Z,0.55
2023-04-25T21:28:32.582Z,0.65
2023-04-25T21:30:59.393Z,0.55
2023-04-25T21:33:26.021Z,0.98
2023-04-25T21:35:52.636Z,0.75
2023-04-25T21:38:19.233Z,1.48
2023-04-25T21:40:45.894Z,1.40
2023-04-25T21:43:12.926Z,1.35
2023-04-25T21:45:53.698Z,1.15
2023-04-25T21:48:26.536Z,0.80
2023-04-25T21:50:53.230Z,0.82
2023-04-25T21:53:19.814Z,0.80
2023-04-25T21:55:46.386Z,1.00
2023-04-25T21:58:13.140Z,1.30
2023-04-25T22:00:39.758Z,1.17
2023-04-25T22:03:06.441Z,1.00
2023-04-25T22:05:34.092Z,1.13
2023-04-25T22:08:00.718Z,0.85
2023-04-25T22:10:27.348Z,0.60
2023-04-25T22:12:54.233Z,1.25
2023-04-25T22:15:23.508Z,0.80
2023-04-25T22:17:52.204Z,0.55
2023-04-25T22:20:24.026Z,1.25
2023-04-25T22:22:50.713Z,0.88
2023-04-25T22:25:17.381Z,0.68
2023-04-25T22:27:44.084Z,0.50
2023-04-25T22:30:14.473Z,0.47
2023-04-25T22:32:41.533Z,0.60
2023-04-25T22:35:09.048Z,0.80
2023-04-25T22:37:35.845Z,0.50
2023-04-25T22:40:08.229Z,0.40
2023-04-25T22:42:43.060Z,0.60
2023-04-25T22:45:10.484Z,0.47
2023-04-25T22:47:38.778Z,0.70
2023-04-25T22:50:13.605Z,0.52
2023-04-25T22:52:42.046Z,1.00
2023-04-25T22:55:10.201Z,1.35
2023-04-25T22:57:38.662Z,0.75
2023-04-25T23:00:11.604Z,0.82
2023-04-25T23:02:38.437Z,0.68
2023-04-25T23:05:06.914Z,0.93
2023-04-25T23:07:33.943Z,0.73
2023-04-25T23:10:00.987Z,0.98
2023-04-25T23:12:27.959Z,0.80
2023-04-25T23:14:54.545Z,0.38
2023-04-25T23:17:21.320Z,0.55
2023-04-25T23:19:48.294Z,0.90
2023-04-25T23:22:15.298Z,0.98
2023-04-25T23:24:41.869Z,0.55
2023-04-25T23:27:08.501Z,0.60
2023-04-25T23:29:35.437Z,0.80
2023-04-25T23:32:02.022Z,0.73
2023-04-25T23:34:32.387Z,0.82
2023-04-25T23:37:04.138Z,0.70
2023-04-25T23:39:31.129Z,0.70
2023-04-25T23:41:57.730Z,1.00
2023-04-25T23:44:24.463Z,0.80
2023-04-25T23:46:51.216Z,0.63
2023-04-25T23:49:18.667Z,0.80
2023-04-25T23:51:45.614Z,0.40
2023-04-25T23:54:13.316Z,1.13
2023-04-25T23:56:40.094Z,0.60
2023-04-25T23:59:06.758Z,0.88
